createdAt,value
2022-09-30T00:01:42.373Z,9.20
2022-09-30T00:04:20.690Z,9.20
2022-09-30T00:06:48.180Z,9.20
2022-09-30T00:12:04.901Z,9.20
2022-09-30T00:14:32.118Z,9.20
2022-09-30T00:16:59.629Z,9.20
2022-09-30T00:19:28.257Z,9.20
2022-09-30T00:21:55.897Z,9.20
2022-09-30T00:24:23.171Z,9.20
2022-09-30T00:26:53.461Z,9.20
2022-09-30T00:29:21.899Z,9.30
2022-09-30T00:37:45.935Z,9.20
2022-09-30T00:40:16.399Z,9.10
2022-09-30T00:42:43.770Z,9.30
2022-09-30T00:45:11.766Z,9.60
2022-09-30T00:48:01.204Z,9.30
2022-09-30T00:50:46.790Z,9.20
2022-09-30T00:53:14.268Z,9.20
2022-09-30T00:55:48.142Z,9.20
2022-09-30T00:58:25.336Z,9.20
2022-09-30T01:00:52.638Z,9.20
2022-09-30T01:03:22.690Z,9.20
2022-09-30T01:05:52.291Z,9.10
2022-09-30T01:08:22.219Z,9.10
2022-09-30T01:10:50.828Z,9.10
2022-09-30T01:13:20.458Z,8.90
2022-09-30T01:16:20.599Z,9.00
2022-09-30T01:19:10.673Z,9.00
2022-09-30T01:22:12.258Z,9.00
2022-09-30T01:25:06.858Z,9.00
2022-09-30T01:28:01.907Z,9.00
2022-09-30T01:33:41.787Z,9.10
2022-09-30T01:36:23.045Z,9.00
2022-09-30T01:38:56.318Z,9.00
2022-09-30T01:41:33.084Z,9.10
2022-09-30T01:44:12.876Z,9.00
2022-09-30T01:46:50.898Z,9.00
2022-09-30T01:49:37.527Z,9.00
2022-09-30T01:52:11.091Z,9.00
2022-09-30T01:54:50.099Z,9.10
2022-09-30T01:57:27.525Z,9.00
2022-09-30T02:00:10.303Z,9.00
2022-09-30T02:03:21.032Z,9.00
2022-09-30T02:05:56.006Z,9.00
2022-09-30T02:08:57.680Z,9.00
2022-09-30T02:11:30.296Z,9.00
2022-09-30T02:14:02.773Z,9.00
2022-09-30T02:17:02.364Z,9.00
2022-09-30T02:19:46.840Z,8.90
2022-09-30T02:22:24.561Z,8.90
2022-09-30T02:24:58.051Z,8.90
2022-09-30T02:27:42.126Z,8.90
2022-09-30T02:30:12.652Z,8.90
2022-09-30T02:32:46.323Z,9.00
2022-09-30T02:35:24.452Z,9.00
2022-09-30T02:37:59.259Z,9.00
2022-09-30T02:40:43.585Z,9.00
2022-09-30T02:43:11.349Z,8.90
2022-09-30T02:45:47.847Z,8.90
2022-09-30T02:48:27.807Z,9.10
2022-09-30T02:51:04.608Z,8.90
2022-09-30T02:53:44.096Z,8.90
2022-09-30T02:56:26.356Z,9.00
2022-09-30T02:58:56.457Z,8.90
2022-09-30T03:01:25.376Z,8.80
2022-09-30T03:04:00.798Z,8.80
2022-09-30T03:06:29.756Z,8.80
2022-09-30T03:08:59.149Z,8.80
2022-09-30T03:11:28.781Z,8.80
2022-09-30T03:14:28.953Z,8.80
2022-09-30T03:17:18.664Z,8.70
2022-09-30T03:20:33.816Z,8.70
2022-09-30T03:23:13.635Z,8.60
2022-09-30T03:26:10.557Z,8.60
2022-09-30T03:28:54.842Z,8.60
2022-09-30T03:31:41.929Z,8.60
2022-09-30T03:34:21.377Z,8.60
2022-09-30T03:37:04.264Z,8.50
2022-09-30T03:40:18.490Z,8.50
2022-09-30T03:42:53.802Z,8.60
2022-09-30T03:45:31.889Z,8.60
2022-09-30T03:48:04.273Z,8.60
2022-09-30T03:50:33.959Z,8.50
2022-09-30T03:53:01.872Z,8.50
2022-09-30T03:55:31.584Z,8.50
2022-09-30T03:57:59.120Z,8.50
2022-09-30T04:00:26.535Z,8.60
2022-09-30T04:02:57.733Z,8.60
2022-09-30T04:05:25.275Z,8.60
2022-09-30T04:07:52.519Z,8.60
2022-09-30T04:10:19.881Z,8.60
2022-09-30T04:12:47.100Z,8.70
2022-09-30T04:15:14.529Z,8.70
2022-09-30T04:17:42.470Z,8.80
2022-09-30T04:20:09.764Z,8.70
2022-09-30T04:22:36.920Z,8.70
2022-09-30T04:25:04.608Z,8.70
2022-09-30T04:27:32.029Z,8.70
2022-09-30T04:29:59.216Z,8.80
2022-09-30T04:32:26.551Z,8.70
2022-09-30T04:34:54.598Z,8.70
2022-09-30T04:37:21.932Z,8.70
2022-09-30T04:39:49.155Z,8.70
2022-09-30T04:42:18.237Z,8.70
2022-09-30T04:44:45.429Z,8.70
2022-09-30T04:47:12.600Z,8.70
2022-09-30T04:49:39.783Z,8.70
2022-09-30T04:52:06.978Z,8.80
2022-09-30T04:54:34.305Z,8.70
2022-09-30T04:57:01.497Z,8.70
2022-09-30T04:59:28.659Z,8.60
2022-09-30T05:01:55.865Z,8.70
2022-09-30T05:04:23.063Z,8.70
2022-09-30T05:06:50.410Z,8.60
2022-09-30T05:09:17.577Z,8.60
2022-09-30T05:11:44.840Z,8.60
2022-09-30T05:14:12.024Z,8.60
2022-09-30T05:16:39.213Z,8.60
2022-09-30T05:19:06.416Z,8.60
2022-09-30T05:21:34.036Z,8.60
2022-09-30T05:24:02.122Z,8.60
2022-09-30T05:26:29.371Z,8.60
2022-09-30T05:28:57.540Z,8.70
2022-09-30T05:31:24.819Z,8.70
2022-09-30T05:33:57.143Z,8.60
2022-09-30T05:36:25.186Z,8.70
2022-09-30T05:38:53.159Z,8.70
2022-09-30T05:41:21.003Z,8.70
2022-09-30T05:43:48.814Z,8.70
2022-09-30T05:46:17.588Z,8.80
2022-09-30T05:48:45.604Z,8.80
2022-09-30T05:51:12.889Z,8.80
2022-09-30T05:53:40.134Z,8.90
2022-09-30T05:56:08.865Z,8.90
2022-09-30T05:58:37.906Z,9.00
2022-09-30T06:01:13.515Z,9.10
2022-09-30T06:03:44.969Z,9.10
2022-09-30T06:06:13.080Z,9.20
2022-09-30T06:08:40.459Z,9.10
2022-09-30T06:11:11.756Z,9.30
2022-09-30T06:13:40.555Z,9.40
2022-09-30T06:16:09.168Z,9.50
2022-09-30T06:18:39.188Z,9.50
2022-09-30T06:21:06.616Z,9.60
2022-09-30T06:23:35.141Z,9.60
2022-09-30T06:26:04.363Z,9.70
2022-09-30T06:28:37.656Z,9.70
2022-09-30T06:31:06.779Z,9.90
2022-09-30T06:33:34.226Z,9.80
2022-09-30T06:36:04.373Z,9.90
2022-09-30T06:38:32.886Z,9.90
2022-09-30T06:41:01.035Z,10.00
2022-09-30T06:43:28.783Z,9.90
2022-09-30T06:46:07.433Z,10.00
2022-09-30T06:48:40.494Z,10.00
2022-09-30T06:51:10.824Z,10.10
2022-09-30T06:53:39.760Z,10.30
2022-09-30T06:56:07.128Z,10.40
2022-09-30T06:58:34.286Z,10.50
2022-09-30T07:01:04.051Z,10.50
2022-09-30T07:03:33.701Z,10.60
2022-09-30T07:06:02.767Z,10.70
2022-09-30T07:08:31.630Z,10.70
2022-09-30T07:10:59.855Z,10.80
2022-09-30T07:13:27.446Z,10.80
2022-09-30T07:15:56.440Z,10.90
2022-09-30T07:18:25.217Z,10.90
2022-09-30T07:20:54.140Z,11.00
2022-09-30T07:23:26.500Z,11.10
2022-09-30T07:25:56.880Z,11.20
2022-09-30T07:28:31.402Z,11.30
2022-09-30T07:31:20.311Z,11.30
2022-09-30T07:33:51.211Z,11.50
2022-09-30T07:36:32.250Z,11.40
2022-09-30T07:39:05.985Z,11.50
2022-09-30T07:41:35.974Z,11.50
2022-09-30T07:44:06.127Z,11.60
2022-09-30T07:46:38.513Z,11.70
2022-09-30T07:49:08.806Z,11.80
2022-09-30T07:51:41.488Z,11.90
2022-09-30T07:54:14.645Z,12.00
2022-09-30T07:57:09.623Z,12.00
2022-09-30T07:59:32.891Z,12.10
2022-09-30T08:02:01.010Z,12.10
2022-09-30T08:04:28.774Z,12.30
2022-09-30T08:06:58.448Z,12.20
2022-09-30T08:09:27.921Z,12.20
2022-09-30T08:11:55.761Z,12.20
2022-09-30T08:14:27.660Z,12.30
2022-09-30T08:16:56.783Z,12.40
2022-09-30T08:19:25.562Z,12.60
2022-09-30T08:21:54.180Z,12.80
2022-09-30T08:24:22.505Z,13.00
2022-09-30T08:26:49.914Z,13.20
2022-09-30T08:29:20.781Z,13.40
2022-09-30T08:31:57.322Z,13.50
2022-09-30T08:34:24.703Z,13.60
2022-09-30T08:36:54.520Z,13.50
2022-09-30T08:39:23.795Z,13.60
2022-09-30T08:42:36.169Z,13.40
2022-09-30T08:45:43.433Z,13.50
2022-09-30T08:48:35.601Z,13.50
2022-09-30T08:51:29.862Z,13.60
2022-09-30T08:54:02.303Z,13.60
2022-09-30T08:56:34.236Z,13.50
2022-09-30T08:59:35.253Z,13.60
2022-09-30T09:02:21.309Z,13.50
2022-09-30T09:04:52.218Z,13.50
2022-09-30T09:07:25.512Z,13.50
2022-09-30T09:10:26.062Z,13.40
2022-09-30T09:13:02.501Z,13.40
2022-09-30T09:15:45.389Z,13.50
2022-09-30T09:18:51.561Z,13.60
2022-09-30T09:21:22.482Z,13.60
2022-09-30T09:23:53.697Z,13.40
2022-09-30T09:26:21.060Z,13.40
2022-09-30T09:29:32.049Z,13.40
2022-09-30T09:31:59.574Z,13.40
2022-09-30T09:34:29.040Z,13.30
2022-09-30T09:37:15.419Z,13.40
2022-09-30T09:39:45.641Z,13.40
2022-09-30T09:42:24.657Z,13.50
2022-09-30T09:45:03.786Z,13.60
2022-09-30T09:47:30.977Z,13.60
2022-09-30T09:49:59.856Z,13.70
2022-09-30T09:52:58.177Z,13.80
2022-09-30T09:55:25.357Z,13.80
2022-09-30T09:58:06.805Z,13.80
2022-09-30T10:00:57.534Z,14.00
2022-09-30T10:03:28.121Z,14.10
2022-09-30T10:06:02.124Z,14.20
2022-09-30T10:08:38.555Z,14.30
2022-09-30T10:11:21.648Z,14.40
2022-09-30T10:13:51.020Z,14.50
2022-09-30T10:16:32.585Z,14.50
2022-09-30T10:19:00.275Z,14.60
2022-09-30T10:21:28.875Z,14.80
2022-09-30T10:23:57.625Z,14.80
2022-09-30T10:29:05.861Z,14.90
2022-09-30T10:31:36.617Z,15.10
2022-09-30T10:34:32.772Z,15.40
2022-09-30T10:37:06.912Z,15.40
2022-09-30T10:39:39.307Z,15.50
2022-09-30T10:42:27.013Z,15.50
2022-09-30T10:45:24.804Z,15.50
2022-09-30T10:47:55.519Z,15.50
2022-09-30T10:50:26.776Z,15.30
2022-09-30T10:53:02.112Z,15.20
2022-09-30T10:55:42.576Z,15.00
2022-09-30T10:58:35.250Z,14.90
2022-09-30T11:01:26.087Z,14.80
2022-09-30T11:04:17.590Z,14.90
2022-09-30T11:06:46.150Z,14.80
2022-09-30T11:09:43.502Z,14.80
2022-09-30T11:12:30.497Z,14.80
2022-09-30T11:15:08.037Z,14.80
2022-09-30T11:18:14.058Z,14.70
2022-09-30T11:20:53.389Z,14.60
2022-09-30T11:23:29.477Z,14.50
2022-09-30T11:25:56.565Z,14.50
2022-09-30T11:28:23.697Z,14.50
2022-09-30T11:31:21.066Z,14.50
2022-09-30T11:34:15.876Z,14.40
2022-09-30T11:36:54.965Z,14.40
2022-09-30T11:39:40.442Z,14.30
2022-09-30T11:42:36.077Z,14.20
2022-09-30T11:45:21.937Z,14.10
2022-09-30T11:48:30.490Z,14.20
2022-09-30T11:51:26.581Z,14.30
2022-09-30T11:53:53.667Z,14.50
2022-09-30T11:56:42.652Z,14.60
2022-09-30T11:59:21.236Z,14.70
2022-09-30T12:01:52.078Z,14.70
2022-09-30T12:04:31.459Z,14.80
2022-09-30T12:07:10.774Z,14.80
2022-09-30T12:09:47.404Z,14.80
2022-09-30T12:12:17.682Z,14.80
2022-09-30T12:15:02.849Z,14.80
2022-09-30T12:17:33.211Z,14.90
2022-09-30T12:20:08.472Z,14.90
2022-09-30T12:22:42.960Z,15.10
2022-09-30T12:25:31.153Z,15.00
2022-09-30T12:28:32.945Z,15.10
2022-09-30T12:31:28.557Z,15.00
2022-09-30T12:34:40.508Z,15.10
2022-09-30T12:37:50.051Z,15.00
2022-09-30T12:40:48.913Z,15.00
2022-09-30T12:43:31.239Z,15.00
2022-09-30T12:46:23.383Z,14.90
2022-09-30T12:49:04.624Z,14.90
2022-09-30T12:51:41.376Z,14.90
2022-09-30T12:54:14.069Z,15.00
2022-09-30T12:56:47.171Z,15.10
2022-09-30T12:59:16.199Z,15.20
2022-09-30T13:01:43.533Z,15.40
2022-09-30T13:04:30.190Z,15.50
2022-09-30T13:06:57.288Z,15.50
2022-09-30T13:09:34.804Z,15.50
2022-09-30T13:12:02.149Z,15.60
2022-09-30T13:14:37.863Z,15.50
2022-09-30T13:17:07.919Z,15.50
2022-09-30T13:19:40.987Z,15.40
2022-09-30T13:22:20.678Z,15.30
2022-09-30T13:24:57.642Z,15.30
2022-09-30T13:27:40.204Z,15.30
2022-09-30T13:30:13.508Z,15.40
2022-09-30T13:32:43.465Z,15.50
2022-09-30T13:35:33.556Z,15.50
2022-09-30T13:38:13.376Z,15.70
2022-09-30T13:41:06.723Z,15.70
2022-09-30T13:43:40.826Z,15.70
2022-09-30T13:46:35.528Z,15.80
2022-09-30T13:49:12.178Z,15.90
2022-09-30T13:51:41.618Z,16.00
2022-09-30T13:54:24.009Z,16.00
2022-09-30T13:56:52.767Z,15.70
2022-09-30T13:59:31.532Z,15.70
2022-09-30T14:02:23.434Z,15.60
2022-09-30T14:04:54.332Z,15.50
2022-09-30T14:07:37.095Z,15.50
2022-09-30T14:10:43.268Z,15.50
2022-09-30T14:13:16.430Z,15.50
2022-09-30T14:15:47.037Z,15.30
2022-09-30T14:18:41.877Z,15.30
2022-09-30T14:21:27.419Z,15.30
2022-09-30T14:24:04.082Z,15.30
2022-09-30T14:26:57.482Z,15.30
2022-09-30T14:29:28.698Z,15.40
2022-09-30T14:31:56.184Z,15.40
2022-09-30T14:34:26.061Z,15.30
2022-09-30T14:36:54.478Z,15.30
2022-09-30T14:39:28.163Z,15.30
2022-09-30T14:41:59.294Z,15.20
2022-09-30T14:44:30.188Z,15.10
2022-09-30T14:47:01.317Z,15.10
2022-09-30T14:49:35.987Z,15.20
2022-09-30T14:52:04.509Z,15.10
2022-09-30T14:54:33.063Z,15.10
2022-09-30T14:57:05.416Z,15.10
2022-09-30T14:59:34.359Z,14.90
2022-09-30T15:02:05.079Z,15.00
2022-09-30T15:04:39.797Z,15.00
2022-09-30T15:07:11.223Z,14.80
2022-09-30T15:09:44.159Z,14.80
2022-09-30T15:12:17.858Z,14.80
2022-09-30T15:14:47.796Z,14.80
2022-09-30T15:17:36.392Z,14.70
2022-09-30T15:20:22.492Z,14.70
2022-09-30T15:22:52.990Z,14.70
2022-09-30T15:25:24.222Z,14.70
2022-09-30T15:28:09.605Z,14.60
2022-09-30T15:30:44.832Z,14.60
2022-09-30T15:33:18.892Z,14.70
2022-09-30T15:35:53.414Z,14.60
2022-09-30T15:38:26.342Z,14.50
2022-09-30T15:41:03.176Z,14.40
2022-09-30T15:43:36.284Z,14.50
2022-09-30T15:46:18.310Z,14.40
2022-09-30T15:48:46.884Z,14.50
2022-09-30T15:51:32.888Z,14.40
2022-09-30T15:54:16.388Z,14.50
2022-09-30T15:56:44.360Z,14.50
2022-09-30T15:59:13.369Z,14.50
2022-09-30T16:01:42.716Z,14.40
2022-09-30T16:04:24.605Z,14.40
2022-09-30T16:06:55.698Z,14.30
2022-09-30T16:09:25.459Z,14.30
2022-09-30T16:12:18.179Z,14.20
2022-09-30T16:14:54.772Z,14.10
2022-09-30T16:17:30.604Z,14.10
2022-09-30T16:20:06.508Z,14.10
2022-09-30T16:22:41.037Z,14.00
2022-09-30T16:25:26.316Z,14.00
2022-09-30T16:28:13.813Z,14.00
2022-09-30T16:30:47.852Z,13.90
2022-09-30T16:33:15.967Z,13.90
2022-09-30T16:35:43.967Z,13.90
2022-09-30T16:38:14.375Z,13.80
2022-09-30T16:40:41.747Z,13.80
2022-09-30T16:43:12.363Z,13.70
2022-09-30T16:45:41.134Z,13.60
2022-09-30T16:48:16.672Z,13.70
2022-09-30T16:51:01.838Z,13.70
2022-09-30T16:53:29.049Z,13.60
2022-09-30T16:55:56.520Z,13.60
2022-09-30T16:58:23.839Z,13.60
2022-09-30T17:00:51.634Z,13.50
2022-09-30T17:03:21.469Z,13.50
2022-09-30T17:05:52.983Z,13.40
2022-09-30T17:08:21.563Z,13.40
2022-09-30T17:10:50.216Z,13.40
2022-09-30T17:13:18.104Z,13.30
2022-09-30T17:15:50.268Z,13.30
2022-09-30T17:18:17.942Z,13.30
2022-09-30T17:20:52.319Z,13.30
2022-09-30T17:23:20.977Z,13.30
2022-09-30T17:25:48.442Z,13.20
2022-09-30T17:28:16.059Z,13.30
2022-09-30T17:30:46.516Z,13.20
2022-09-30T17:33:14.253Z,13.20
2022-09-30T17:35:41.823Z,13.20
2022-09-30T17:38:11.212Z,13.10
2022-09-30T17:40:57.762Z,13.10
2022-09-30T17:43:24.936Z,13.10
2022-09-30T17:45:52.425Z,13.10
2022-09-30T17:48:20.197Z,13.10
2022-09-30T17:50:48.418Z,13.10
2022-09-30T17:53:19.017Z,13.00
2022-09-30T17:55:48.264Z,12.90
2022-09-30T17:58:19.152Z,13.00
2022-09-30T18:00:47.017Z,12.90
2022-09-30T18:03:14.429Z,12.90
2022-09-30T18:05:59.714Z,12.90
2022-09-30T18:08:28.191Z,12.90
2022-09-30T18:10:58.361Z,12.90
2022-09-30T18:13:26.086Z,12.80
2022-09-30T18:15:54.039Z,12.80
2022-09-30T18:18:21.408Z,12.80
2022-09-30T18:20:50.185Z,12.70
2022-09-30T18:23:21.251Z,12.70
2022-09-30T18:25:49.578Z,12.70
2022-09-30T18:28:17.107Z,12.60
2022-09-30T18:30:44.396Z,12.80
2022-09-30T18:33:11.591Z,12.70
2022-09-30T18:35:39.595Z,12.70
2022-09-30T18:38:06.911Z,12.70
2022-09-30T18:40:34.111Z,12.60
2022-09-30T18:43:04.184Z,12.70
2022-09-30T18:45:38.347Z,12.60
2022-09-30T18:48:07.487Z,12.60
2022-09-30T18:50:34.704Z,12.60
2022-09-30T18:53:09.518Z,12.60
2022-09-30T18:55:38.188Z,12.60
2022-09-30T18:58:05.876Z,12.60
2022-09-30T19:00:33.387Z,12.60
2022-09-30T19:03:00.652Z,12.60
2022-09-30T19:05:28.137Z,12.60
2022-09-30T19:07:55.898Z,12.60
2022-09-30T19:10:24.317Z,12.60
2022-09-30T19:12:51.943Z,12.50
2022-09-30T19:15:19.295Z,12.60
2022-09-30T19:17:46.970Z,12.60
2022-09-30T19:20:17.831Z,12.60
2022-09-30T19:22:45.567Z,12.60
2022-09-30T19:25:12.807Z,12.60
2022-09-30T19:27:41.292Z,12.50
2022-09-30T19:30:11.122Z,12.50
2022-09-30T19:32:38.518Z,12.50
2022-09-30T19:35:10.080Z,12.50
2022-09-30T19:37:40.428Z,12.50
2022-09-30T19:40:20.920Z,12.60
2022-09-30T19:42:49.701Z,12.50
2022-09-30T19:45:19.068Z,12.50
2022-09-30T19:47:48.480Z,12.50
2022-09-30T19:50:15.828Z,12.40
2022-09-30T19:52:54.781Z,12.40
2022-09-30T19:55:24.366Z,12.50
2022-09-30T19:57:51.566Z,12.30
2022-09-30T20:00:18.814Z,12.30
2022-09-30T20:02:45.955Z,12.30
2022-09-30T20:05:13.120Z,12.30
2022-09-30T20:07:40.325Z,12.40
2022-09-30T20:10:07.871Z,12.40
2022-09-30T20:12:35.024Z,12.40
2022-09-30T20:15:21.007Z,12.40
2022-09-30T20:17:48.254Z,12.40
2022-09-30T20:20:34.006Z,12.30
2022-09-30T20:23:01.307Z,12.30
2022-09-30T20:25:29.885Z,12.40
2022-09-30T20:27:57.070Z,12.30
2022-09-30T20:30:25.001Z,12.30
2022-09-30T20:32:53.058Z,12.30
2022-09-30T20:35:21.732Z,12.30
2022-09-30T20:37:49.115Z,12.30
2022-09-30T20:40:16.395Z,12.30
2022-09-30T20:42:43.897Z,12.30
2022-09-30T20:45:11.558Z,12.30
2022-09-30T20:47:40.147Z,12.20
2022-09-30T20:50:07.756Z,12.20
2022-09-30T20:52:34.940Z,12.20
2022-09-30T20:55:02.209Z,12.20
2022-09-30T20:57:30.119Z,12.10
2022-09-30T20:59:59.051Z,12.10
2022-09-30T21:02:30.280Z,12.10
2022-09-30T21:04:58.153Z,12.10
2022-09-30T21:07:26.029Z,12.10
2022-09-30T21:09:53.236Z,12.10
2022-09-30T21:12:20.553Z,12.10
2022-09-30T21:14:47.951Z,12.10
2022-09-30T21:17:15.289Z,12.00
2022-09-30T21:19:43.261Z,12.00
2022-09-30T21:22:11.056Z,12.10
2022-09-30T21:24:38.186Z,12.00
2022-09-30T21:27:05.899Z,12.00
2022-09-30T21:29:33.319Z,12.00
2022-09-30T21:32:00.864Z,11.90
2022-09-30T21:34:28.198Z,12.00
2022-09-30T21:36:55.429Z,12.00
2022-09-30T21:39:22.679Z,12.00
2022-09-30T21:41:49.800Z,11.90
2022-09-30T21:44:17.136Z,11.90
2022-09-30T21:46:48.808Z,11.90
2022-09-30T21:49:22.938Z,11.90
2022-09-30T21:51:52.808Z,11.80
2022-09-30T21:54:20.637Z,11.80
2022-09-30T21:56:48.444Z,11.80
2022-09-30T21:59:16.357Z,11.70
2022-09-30T22:01:43.568Z,11.80
2022-09-30T22:04:10.772Z,11.60
2022-09-30T22:06:37.968Z,11.80
2022-09-30T22:09:05.188Z,11.70
2022-09-30T22:11:32.975Z,11.70
2022-09-30T22:14:00.816Z,11.70
2022-09-30T22:16:34.862Z,11.70
2022-09-30T22:19:04.840Z,11.70
2022-09-30T22:21:34.614Z,11.60
2022-09-30T22:24:03.775Z,11.60
2022-09-30T22:26:32.762Z,11.60
2022-09-30T22:29:07.175Z,11.60
2022-09-30T22:31:34.820Z,11.60
2022-09-30T22:34:23.240Z,11.60
2022-09-30T22:37:13.669Z,11.50
2022-09-30T22:39:40.850Z,11.50
2022-09-30T22:42:08.186Z,11.50
2022-09-30T22:44:36.838Z,11.40
2022-09-30T22:47:05.106Z,11.40
2022-09-30T22:49:32.881Z,11.40
2022-09-30T22:52:01.723Z,11.40
2022-09-30T22:54:29.380Z,11.40
2022-09-30T22:56:59.004Z,11.40
2022-09-30T22:59:26.748Z,11.40
2022-09-30T23:01:55.369Z,11.40
2022-09-30T23:04:22.852Z,11.40
2022-09-30T23:06:51.055Z,11.30
2022-09-30T23:09:20.646Z,11.30
2022-09-30T23:11:51.511Z,11.30
2022-09-30T23:14:18.745Z,11.30
2022-09-30T23:16:46.759Z,11.30
2022-09-30T23:19:13.979Z,11.30
2022-09-30T23:21:41.196Z,11.40
2022-09-30T23:24:08.426Z,11.40
2022-09-30T23:26:37.042Z,11.40
2022-09-30T23:29:07.201Z,11.40
2022-09-30T23:31:34.957Z,11.40
2022-09-30T23:34:04.585Z,11.40
2022-09-30T23:36:34.978Z,11.40
2022-09-30T23:39:04.911Z,11.40
2022-09-30T23:41:34.009Z,11.40
2022-09-30T23:44:01.712Z,11.40
2022-09-30T23:46:28.853Z,11.40
2022-09-30T23:48:58.855Z,11.50
2022-09-30T23:51:26.055Z,11.50
2022-09-30T23:53:53.392Z,11.50
2022-09-30T23:56:21.020Z,11.50
2022-09-30T23:58:48.352Z,11.50
